• Join FlightAware (Why Join?)
  • Login
  • US Flag 
Trick or treat! (Boo!!) 
12:00AM EDT


 

Airport Tracker/Info


-or-


 

Live Flight TrackerFlight Track Log ✈ N555CP ✈ 06-Oct-2013 ✈ KALW - KUAO

Flight Track Log - Related Links

Times and Time Zones

All times are in EDT time to prevent confusion due to time zone crossing. See the N555CP flight status page for this flight to view local times or setup timezone preferences in your user account.

Time Position Orientation Groundspeed Altitude Reporting Facility
EDT Latitude Longitude Course Direction KTS MPH feet Rate Location/Type
05:27PM 46.0450 -118.3903 250° West 130 150 3,600  Level Seattle Center
05:28PM 46.0353 -118.4447 256° West 143 165 4,300 780 Climbing Seattle Center
05:29PM 46.0278 -118.5028 259° West 146 168 5,300 960 Climbing Seattle Center
05:30PM 46.0167 -118.5533 252° West 138 159 6,300 840 Climbing Seattle Center
05:31PM 46.0089 -118.6031 257° West 129 148 7,100 780 Climbing Seattle Center
05:32PM 46.0319 -118.6615 250° West  Level Estimated
05:32PM 46.0008 -118.6572 258° West 139 160 8,000  Level Seattle Center
05:33PM 45.9917 -118.7092 256° West 134 154 8,800 780 Climbing Seattle Center
05:34PM 45.9825 -118.7728 258° West 136 157 9,600 780 Climbing Seattle Center
05:35PM 45.9744 -118.8292 258° West 142 163 10,400 780 Climbing Seattle Center
05:36PM 45.9661 -118.8825 257° West 137 158 11,200 720 Climbing Seattle Center
05:37PM 45.9569 -118.9361 256° West 139 160 11,900 720 Climbing Seattle Center
05:38PM 45.9483 -118.9900 257° West 139 160 12,700 720 Climbing Seattle Center
05:39PM 45.9378 -119.0436 254° West 140 161 13,400 660 Climbing Seattle Center
05:40PM 45.9283 -119.0989 256° West 143 165 14,100 660 Climbing Seattle Center
05:41PM 45.9194 -119.1544 257° West 144 166 14,800 600 Climbing Seattle Center
05:42PM 45.9094 -119.2103 256° West 145 167 15,400 600 Climbing Seattle Center
05:43PM 45.8994 -119.2672 256° West 147 169 16,100 660 Climbing Seattle Center
05:44PM 45.8900 -119.3253 257° West 150 173 16,800 720 Climbing Seattle Center
05:45PM 45.8781 -119.3906 255° West 142 163 17,600 540 Climbing Seattle Center
05:46PM 45.8678 -119.4486 256° West 149 171 18,000 180 Climbing Seattle Center
05:47PM 45.8592 -119.5128 259° West 158 182 18,000  Level Seattle Center
05:48PM 45.8478 -119.5789 256° West 167 192 18,000  Level Seattle Center
05:49PM 45.8364 -119.6431 256° West 167 192 18,000  Level Seattle Center
05:50PM 45.8233 -119.7097 254° West 171 197 18,000  Level Seattle Center
05:51PM 45.8131 -119.7742 257° West 169 194 18,000  Level Seattle Center
05:52PM 45.8014 -119.8411 256° West 171 197 18,000  Level Seattle Center
05:53PM 45.7897 -119.9058 256° West 171 197 18,000  Level Seattle Center
05:54PM 45.7778 -119.9692 255° West 168 193 18,000  Level Seattle Center
05:55PM 45.7650 -120.0494 257° West 172 198 18,000  Level Seattle Center
05:56PM 45.7522 -120.1161 255° West 174 200 18,000  Level Seattle Center
05:57PM 45.7408 -120.1819 256° West 172 198 18,000  Level Seattle Center
05:58PM 45.7292 -120.2472 256° West 170 196 18,000  Level Seattle Center
05:59PM 45.7178 -120.3117 256° West 168 193 18,000  Level Seattle Center
06:00PM 45.7058 -120.3764 255° West 169 194 18,000  Level Seattle Center
06:01PM 45.6947 -120.4408 256° West 167 192 18,000  Level Seattle Center
06:02PM 45.6833 -120.5069 256° West 170 196 18,000  Level Seattle Center
06:03PM 45.6711 -120.5719 255° West 170 196 18,000  Level Seattle Center
06:04PM 45.6597 -120.6358 256° West 168 193 18,000  Level Seattle Center
06:05PM 45.6453 -120.7133 255° West 168 193 18,000  Level Seattle Center
06:06PM 45.6325 -120.7792 255° West 170 196 18,000  Level Seattle Center
06:08PM 45.6214 -120.8442 256° West 171 197 18,000  Level Seattle Center
06:09PM 45.6100 -120.9092 256° West 170 196 18,000  Level Seattle Center
06:10PM 45.5981 -120.9750 255° West 170 196 18,000  Level Seattle Center
06:11PM 45.5883 -121.0417 258° West 172 198 18,000  Level Seattle Center
06:12PM 45.5831 -121.1114 264° West 176 203 18,000  Level Seattle Center
06:13PM 45.5781 -121.1792 264° West 174 200 18,000 -300 Level Seattle Center
06:14PM 45.5717 -121.2506 263° West 181 208 17,500 -600 Descending Seattle Center
06:15PM 45.5658 -121.3286 264° West 195 224 16,900 -540 Descending Seattle Center
06:15PM 45.5586 -121.4006 262° West 190 219 16,600 -300 Descending Seattle Center
06:16PM 45.5575 -121.4186 265° West 191 220 16,600 -420 Level Seattle Center
06:16PM 45.5536 -121.4583 262° West 190 219 16,300 -540 Descending Seattle Center
06:17PM 45.5522 -121.4922 267° West 188 216 16,100 -420 Descending Seattle Center
06:17PM 45.5772 -121.5289 314° West 221 254 15,900 -240 Descending Seattle Center
06:18PM 45.5994 -121.5444 334° Northwest 223 257 15,900 180 Level Seattle Center
06:18PM 45.6250 -121.5797 316° Northwest 214 246 16,100 180 Climbing Seattle Center
06:19PM 45.6411 -121.6019 316° Northwest 209 241 16,100 -300 Level Seattle Center
06:19PM 45.6511 -121.6211 307° West 203 234 15,900 -840 Descending Seattle Center
06:20PM 45.6783 -121.6642 312° West 208 239 15,300 -720 Descending Seattle Center
06:20PM 45.6847 -121.6875 291° West 204 235 15,200 -600 Descending Seattle Center
06:21PM 45.7003 -121.7397 293° West 208 239 14,700 -840 Descending Seattle Center
06:21PM 45.6986 -121.7650 265° West 201 231 14,400 -1,320 Descending Seattle Center
06:22PM 45.7044 -121.8242 278° West 213 245 13,400 -1,320 Descending Seattle Center
06:22PM 45.7008 -121.8481 258° West 208 239 13,100 -2,040 Descending Seattle Center
06:23PM 45.6689 -121.8819 217° Southwest 207 238 11,300 -2,280 Descending Seattle Center
06:23PM 45.6500 -121.9067 222° Southwest 215 247 10,600 -1,200 Descending Seattle Center
06:24PM 45.6206 -121.9383 217° Southwest 209 241 10,100 -1,140 Descending Seattle Center
06:24PM 45.6111 -121.9603 238° Southwest 190 219 9,500 -1,920 Descending Seattle Center
06:25PM 45.5847 -121.9922 220° Southwest 194 223 8,200 -1,440 Descending Seattle Center
06:25PM 45.5722 -122.0136 230° Southwest 195 224 8,100 -1,140 Descending Seattle Center
06:26PM 45.5517 -122.0469 229° Southwest 183 211 7,100 -1,020 Descending Seattle Center
06:26PM 45.5406 -122.0703 236° Southwest 185 213 7,100  Level Seattle Center
06:27PM 45.5211 -122.1031 230° Southwest 181 208 7,100  Level Seattle Center
06:27PM 45.5083 -122.1239 229° Southwest 156 180 7,100 -540 Level Seattle Center
06:28PM 45.4964 -122.1522 239° Southwest 159 183 6,600 -1,260 Descending Seattle Center
06:28PM 45.4731 -122.1850 225° Southwest 194 223 5,600 -1,620 Descending Seattle Center
06:29PM 45.4636 -122.2125 244° Southwest 185 213 5,000 -1,500 Descending Seattle Center
06:29PM 45.4664 -122.2678 274° West 210 242 4,100 -900 Descending Seattle Center
06:30PM 45.4653 -122.2917 266° West 198 228 4,100 -660 Level Seattle Center
06:30PM 45.4525 -122.3167 234° Southwest 174 200 3,600 -120 Descending Seattle Center
06:31PM 45.4439 -122.3631 255° West 169 194 4,000 300 Climbing Seattle Center
06:31PM 45.4381 -122.3844 249° West 146 168 4,000  Level Seattle Center
06:32PM 45.4308 -122.4158 252° West 150 173 4,000  Level Seattle Center
06:32PM 45.4250 -122.4267 233° Southwest 139 160 4,000  Level Seattle Center
06:33PM 45.4094 -122.4611 237° Southwest 140 161 4,000  Level Seattle Center
06:33PM 45.3969 -122.4811 228° Southwest 137 158 4,000 -600 Level Seattle Center
06:34PM 45.3847 -122.5053 234° Southwest 141 162 3,400 -900 Descending Seattle Center
06:34PM 45.3725 -122.5314 236° Southwest 167 192 3,100 -540 Descending Seattle Center
06:35PM 45.3689 -122.5644 261° West 168 193 2,900 -480 Descending Seattle Center
06:35PM 45.3775 -122.5878 298° West 177 204 2,700 -240 Descending Seattle Center
06:36PM 45.3944 -122.6219 305° West 176 203 2,700 60 Level Seattle Center
06:36PM 45.4061 -122.6436 307° West 171 197 2,800 -120 Climbing Seattle Center
06:37PM 45.4189 -122.6769 299° West 170 196 2,600 -300 Descending Seattle Center
06:37PM 45.4083 -122.6981 235° Southwest 154 177 2,500 240 Descending Seattle Center
06:38PM 45.4022 -122.7283 254° West 141 162 2,900 420 Climbing Seattle Center
06:38PM 45.4006 -122.7444 262° West 126 145 2,900 -420 Level Seattle Center
06:39PM 45.3847 -122.7686 227° Southwest 140 161 2,500 -540 Descending Seattle Center